sensor_id;sensor_type;location;lat;lon;timestamp;temperature;humidity
4699;DHT22;33708;49.466;11.176;2023-05-10T00:00:12;14.80;1.00
4699;DHT22;33708;49.466;11.176;2023-05-10T00:02:37;15.00;1.00
4699;DHT22;33708;49.466;11.176;2023-05-10T00:05:04;15.00;1.00
4699;DHT22;33708;49.466;11.176;2023-05-10T00:07:30;14.90;1.00
4699;DHT22;33708;49.466;11.176;2023-05-10T00:09:56;15.10;1.00
4699;DHT22;33708;49.466;11.176;2023-05-10T00:12:21;15.10;1.00
4699;DHT22;33708;49.466;11.176;2023-05-10T00:14:47;15.10;1.00
4699;DHT22;33708;49.466;11.176;2023-05-10T00:17:13;15.10;1.00
4699;DHT22;33708;49.466;11.176;2023-05-10T00:19:39;15.00;1.00
4699;DHT22;33708;49.466;11.176;2023-05-10T00:22:05;15.00;1.00
4699;DHT22;33708;49.466;11.176;2023-05-10T00:24:30;14.80;1.00
4699;DHT22;33708;49.466;11.176;2023-05-10T00:26:56;14.80;1.00
4699;DHT22;33708;49.466;11.176;2023-05-10T00:29:21;15.00;1.00
4699;DHT22;33708;49.466;11.176;2023-05-10T00:31:47;14.90;1.00
4699;DHT22;33708;49.466;11.176;2023-05-10T00:34:12;14.80;1.00
4699;DHT22;33708;49.466;11.176;2023-05-10T00:36:38;15.00;1.00
4699;DHT22;33708;49.466;11.176;2023-05-10T00:39:04;15.00;1.00
4699;DHT22;33708;49.466;11.176;2023-05-10T00:41:36;14.80;1.00
4699;DHT22;33708;49.466;11.176;2023-05-10T00:44:19;14.50;1.00
4699;DHT22;33708;49.466;11.176;2023-05-10T00:46:49;14.40;1.00
4699;DHT22;33708;49.466;11.176;2023-05-10T00:49:32;14.40;1.00
4699;DHT22;33708;49.466;11.176;2023-05-10T00:52:00;14.30;1.00
4699;DHT22;33708;49.466;11.176;2023-05-10T00:54:27;14.20;1.00
4699;DHT22;33708;49.466;11.176;2023-05-10T00:56:54;14.10;1.00
4699;DHT22;33708;49.466;11.176;2023-05-10T00:59:22;14.20;1.00
4699;DHT22;33708;49.466;11.176;2023-05-10T01:01:48;14.20;1.00
4699;DHT22;33708;49.466;11.176;2023-05-10T01:04:14;14.20;1.00
4699;DHT22;33708;49.466;11.176;2023-05-10T01:06:41;14.20;1.00
4699;DHT22;33708;49.466;11.176;2023-05-10T01:09:06;14.10;1.00
4699;DHT22;33708;49.466;11.176;2023-05-10T01:11:36;14.20;1.00
4699;DHT22;33708;49.466;11.176;2023-05-10T01:14:02;14.30;1.00
4699;DHT22;33708;49.466;11.176;2023-05-10T01:16:31;14.30;1.00
4699;DHT22;33708;49.466;11.176;2023-05-10T01:18:57;14.50;1.00
4699;DHT22;33708;49.466;11.176;2023-05-10T01:21:42;14.70;1.00
4699;DHT22;33708;49.466;11.176;2023-05-10T01:27:17;14.80;1.00
4699;DHT22;33708;49.466;11.176;2023-05-10T01:41:28;14.30;1.00
4699;DHT22;33708;49.466;11.176;2023-05-10T01:44:20;14.30;1.00
4699;DHT22;33708;49.466;11.176;2023-05-10T01:47:01;14.50;1.00
4699;DHT22;33708;49.466;11.176;2023-05-10T01:49:34;14.40;1.00
4699;DHT22;33708;49.466;11.176;2023-05-10T01:52:06;14.40;1.00
4699;DHT22;33708;49.466;11.176;2023-05-10T01:54:34;14.30;1.00
4699;DHT22;33708;49.466;11.176;2023-05-10T01:57:03;14.20;1.00
4699;DHT22;33708;49.466;11.176;2023-05-10T01:59:33;14.20;1.00
4699;DHT22;33708;49.466;11.176;2023-05-10T02:02:02;14.30;1.00
4699;DHT22;33708;49.466;11.176;2023-05-10T02:04:30;14.40;1.00
4699;DHT22;33708;49.466;11.176;2023-05-10T02:06:56;14.50;1.00
4699;DHT22;33708;49.466;11.176;2023-05-10T02:09:23;14.40;1.00
4699;DHT22;33708;49.466;11.176;2023-05-10T02:11:50;14.40;1.00
4699;DHT22;33708;49.466;11.176;2023-05-10T02:14:17;14.40;1.00
4699;DHT22;33708;49.466;11.176;2023-05-10T02:16:44;14.40;1.00
4699;DHT22;33708;49.466;11.176;2023-05-10T02:19:12;14.50;1.00
4699;DHT22;33708;49.466;11.176;2023-05-10T02:21:40;14.60;1.00
4699;DHT22;33708;49.466;11.176;2023-05-10T02:24:07;14.60;1.00
4699;DHT22;33708;49.466;11.176;2023-05-10T02:26:35;14.60;1.00
4699;DHT22;33708;49.466;11.176;2023-05-10T02:29:02;14.70;1.00
4699;DHT22;33708;49.466;11.176;2023-05-10T02:31:30;14.60;1.00
4699;DHT22;33708;49.466;11.176;2023-05-10T02:33:58;14.70;1.00
4699;DHT22;33708;49.466;11.176;2023-05-10T02:36:24;14.70;1.00
4699;DHT22;33708;49.466;11.176;2023-05-10T02:38:52;14.60;1.00
4699;DHT22;33708;49.466;11.176;2023-05-10T02:41:20;14.60;1.00
4699;DHT22;33708;49.466;11.176;2023-05-10T02:43:50;14.70;1.00
4699;DHT22;33708;49.466;11.176;2023-05-10T02:46:16;14.60;2.00
4699;DHT22;33708;49.466;11.176;2023-05-10T02:48:41;14.80;6.90
4699;DHT22;33708;49.466;11.176;2023-05-10T02:51:07;14.80;6.80
4699;DHT22;33708;49.466;11.176;2023-05-10T02:53:35;14.90;2.00
4699;DHT22;33708;49.466;11.176;2023-05-10T02:56:05;14.90;3.60
4699;DHT22;33708;49.466;11.176;2023-05-10T02:58:34;15.00;1.00
4699;DHT22;33708;49.466;11.176;2023-05-10T03:01:00;15.10;1.20
4699;DHT22;33708;49.466;11.176;2023-05-10T03:03:26;15.20;1.00
4699;DHT22;33708;49.466;11.176;2023-05-10T03:05:52;15.10;1.00
4699;DHT22;33708;49.466;11.176;2023-05-10T03:08:21;15.20;1.00
4699;DHT22;33708;49.466;11.176;2023-05-10T03:13:49;15.10;7.10
4699;DHT22;33708;49.466;11.176;2023-05-10T03:16:28;15.10;9.80
4699;DHT22;33708;49.466;11.176;2023-05-10T03:19:30;15.10;12.40
4699;DHT22;33708;49.466;11.176;2023-05-10T03:22:02;15.20;15.10
4699;DHT22;33708;49.466;11.176;2023-05-10T03:24:30;15.00;15.10
4699;DHT22;33708;49.466;11.176;2023-05-10T03:26:59;15.00;20.90
4699;DHT22;33708;49.466;11.176;2023-05-10T03:29:28;14.80;25.50
4699;DHT22;33708;49.466;11.176;2023-05-10T03:31:54;14.90;26.50
4699;DHT22;33708;49.466;11.176;2023-05-10T03:34:24;15.00;31.10
4699;DHT22;33708;49.466;11.176;2023-05-10T03:36:49;14.90;26.00
4699;DHT22;33708;49.466;11.176;2023-05-10T03:39:15;14.90;28.40
4699;DHT22;33708;49.466;11.176;2023-05-10T03:41:41;15.00;31.50
4699;DHT22;33708;49.466;11.176;2023-05-10T03:44:06;15.00;32.10
4699;DHT22;33708;49.466;11.176;2023-05-10T03:46:32;15.00;32.70
4699;DHT22;33708;49.466;11.176;2023-05-10T03:48:58;15.00;32.30
4699;DHT22;33708;49.466;11.176;2023-05-10T03:51:23;15.00;26.70
4699;DHT22;33708;49.466;11.176;2023-05-10T03:53:56;15.00;30.00
4699;DHT22;33708;49.466;11.176;2023-05-10T03:56:21;15.00;33.10
4699;DHT22;33708;49.466;11.176;2023-05-10T03:58:47;15.00;30.40
4699;DHT22;33708;49.466;11.176;2023-05-10T04:01:12;15.00;34.10
4699;DHT22;33708;49.466;11.176;2023-05-10T04:03:38;14.90;31.90
4699;DHT22;33708;49.466;11.176;2023-05-10T04:06:04;15.00;32.30
4699;DHT22;33708;49.466;11.176;2023-05-10T04:08:30;14.80;28.50
4699;DHT22;33708;49.466;11.176;2023-05-10T04:11:11;14.90;33.20
4699;DHT22;33708;49.466;11.176;2023-05-10T04:13:36;14.80;33.00
4699;DHT22;33708;49.466;11.176;2023-05-10T04:16:03;14.70;24.90
4699;DHT22;33708;49.466;11.176;2023-05-10T04:18:28;14.70;31.00
4699;DHT22;33708;49.466;11.176;2023-05-10T04:20:54;14.80;32.00
4699;DHT22;33708;49.466;11.176;2023-05-10T04:23:19;15.00;35.00
4699;DHT22;33708;49.466;11.176;2023-05-10T04:25:45;15.00;31.50
4699;DHT22;33708;49.466;11.176;2023-05-10T04:28:10;15.00;29.60
4699;DHT22;33708;49.466;11.176;2023-05-10T04:30:36;15.00;30.00
4699;DHT22;33708;49.466;11.176;2023-05-10T04:33:02;14.90;29.60
4699;DHT22;33708;49.466;11.176;2023-05-10T04:35:28;15.00;31.00
4699;DHT22;33708;49.466;11.176;2023-05-10T04:37:54;15.00;30.00
4699;DHT22;33708;49.466;11.176;2023-05-10T04:40:20;15.00;30.20
4699;DHT22;33708;49.466;11.176;2023-05-10T04:42:45;15.10;27.20
4699;DHT22;33708;49.466;11.176;2023-05-10T04:45:11;15.00;26.60
4699;DHT22;33708;49.466;11.176;2023-05-10T04:47:36;15.00;26.70
4699;DHT22;33708;49.466;11.176;2023-05-10T04:50:03;14.90;22.80
4699;DHT22;33708;49.466;11.176;2023-05-10T04:52:29;14.90;20.30
4699;DHT22;33708;49.466;11.176;2023-05-10T04:54:57;14.90;22.80
4699;DHT22;33708;49.466;11.176;2023-05-10T04:57:23;15.30;17.50
4699;DHT22;33708;49.466;11.176;2023-05-10T04:59:48;15.00;14.90
4699;DHT22;33708;49.466;11.176;2023-05-10T05:02:14;15.10;16.80
4699;DHT22;33708;49.466;11.176;2023-05-10T05:04:40;15.10;15.40
4699;DHT22;33708;49.466;11.176;2023-05-10T05:07:05;15.20;17.00
4699;DHT22;33708;49.466;11.176;2023-05-10T05:09:31;15.10;10.50
4699;DHT22;33708;49.466;11.176;2023-05-10T05:11:57;15.20;7.70
4699;DHT22;33708;49.466;11.176;2023-05-10T05:14:23;15.10;7.40
4699;DHT22;33708;49.466;11.176;2023-05-10T05:16:53;14.90;5.10
4699;DHT22;33708;49.466;11.176;2023-05-10T05:19:19;15.30;9.40
4699;DHT22;33708;49.466;11.176;2023-05-10T05:21:44;15.10;4.00
4699;DHT22;33708;49.466;11.176;2023-05-10T05:24:10;15.30;2.90
4699;DHT22;33708;49.466;11.176;2023-05-10T05:26:38;15.40;1.00
4699;DHT22;33708;49.466;11.176;2023-05-10T05:29:03;15.50;1.00
4699;DHT22;33708;49.466;11.176;2023-05-10T05:31:29;15.80;1.00
4699;DHT22;33708;49.466;11.176;2023-05-10T05:33:55;16.00;1.00
4699;DHT22;33708;49.466;11.176;2023-05-10T05:36:21;16.00;1.00
4699;DHT22;33708;49.466;11.176;2023-05-10T05:38:46;15.90;1.00
4699;DHT22;33708;49.466;11.176;2023-05-10T05:41:12;15.60;1.00
4699;DHT22;33708;49.466;11.176;2023-05-10T05:43:38;15.50;1.00
4699;DHT22;33708;49.466;11.176;2023-05-10T05:46:04;15.90;1.00
4699;DHT22;33708;49.466;11.176;2023-05-10T05:48:30;16.10;1.00
4699;DHT22;33708;49.466;11.176;2023-05-10T05:50:56;15.90;1.00
4699;DHT22;33708;49.466;11.176;2023-05-10T05:53:22;16.10;1.00
4699;DHT22;33708;49.466;11.176;2023-05-10T05:55:56;16.10;1.00
4699;DHT22;33708;49.466;11.176;2023-05-10T05:58:23;16.30;1.00
4699;DHT22;33708;49.466;11.176;2023-05-10T06:00:48;16.50;1.00
4699;DHT22;33708;49.466;11.176;2023-05-10T06:03:14;16.50;1.00
4699;DHT22;33708;49.466;11.176;2023-05-10T06:05:40;16.30;1.00
4699;DHT22;33708;49.466;11.176;2023-05-10T06:08:05;16.20;1.00
4699;DHT22;33708;49.466;11.176;2023-05-10T06:10:31;16.00;1.00
4699;DHT22;33708;49.466;11.176;2023-05-10T06:12:56;16.30;1.00
4699;DHT22;33708;49.466;11.176;2023-05-10T06:15:22;16.30;1.00
4699;DHT22;33708;49.466;11.176;2023-05-10T06:17:48;16.30;1.00
4699;DHT22;33708;49.466;11.176;2023-05-10T06:20:15;16.50;1.00
4699;DHT22;33708;49.466;11.176;2023-05-10T06:22:41;16.90;1.00
4699;DHT22;33708;49.466;11.176;2023-05-10T06:25:07;17.10;1.00
4699;DHT22;33708;49.466;11.176;2023-05-10T06:27:33;17.50;1.00
4699;DHT22;33708;49.466;11.176;2023-05-10T06:29:59;17.30;1.00
4699;DHT22;33708;49.466;11.176;2023-05-10T06:32:24;17.60;1.00
4699;DHT22;33708;49.466;11.176;2023-05-10T06:34:50;17.70;1.00
4699;DHT22;33708;49.466;11.176;2023-05-10T06:37:16;18.30;1.00
4699;DHT22;33708;49.466;11.176;2023-05-10T06:39:41;17.60;1.00
4699;DHT22;33708;49.466;11.176;2023-05-10T06:42:08;18.40;1.00
4699;DHT22;33708;49.466;11.176;2023-05-10T06:44:33;18.30;1.00
4699;DHT22;33708;49.466;11.176;2023-05-10T06:46:59;18.10;1.00
4699;DHT22;33708;49.466;11.176;2023-05-10T06:49:24;18.00;1.00
4699;DHT22;33708;49.466;11.176;2023-05-10T06:51:50;17.90;1.00
4699;DHT22;33708;49.466;11.176;2023-05-10T06:54:15;17.90;1.00
4699;DHT22;33708;49.466;11.176;2023-05-10T06:56:41;17.60;1.00
4699;DHT22;33708;49.466;11.176;2023-05-10T06:59:07;17.60;1.00
4699;DHT22;33708;49.466;11.176;2023-05-10T07:01:33;17.80;1.00
4699;DHT22;33708;49.466;11.176;2023-05-10T07:03:58;17.70;1.00
4699;DHT22;33708;49.466;11.176;2023-05-10T07:06:24;17.90;1.00
4699;DHT22;33708;49.466;11.176;2023-05-10T07:08:49;18.10;1.00
4699;DHT22;33708;49.466;11.176;2023-05-10T07:11:15;17.90;1.00
4699;DHT22;33708;49.466;11.176;2023-05-10T07:13:41;18.10;1.00
4699;DHT22;33708;49.466;11.176;2023-05-10T07:16:10;18.30;1.00
4699;DHT22;33708;49.466;11.176;2023-05-10T07:18:35;18.80;1.00
4699;DHT22;33708;49.466;11.176;2023-05-10T07:21:01;18.70;1.00
4699;DHT22;33708;49.466;11.176;2023-05-10T07:23:28;19.50;1.00
4699;DHT22;33708;49.466;11.176;2023-05-10T07:25:54;19.70;1.00
4699;DHT22;33708;49.466;11.176;2023-05-10T07:28:20;19.90;1.00
4699;DHT22;33708;49.466;11.176;2023-05-10T07:30:46;19.80;1.00
4699;DHT22;33708;49.466;11.176;2023-05-10T07:33:13;19.00;1.00
4699;DHT22;33708;49.466;11.176;2023-05-10T07:35:39;19.10;1.00
4699;DHT22;33708;49.466;11.176;2023-05-10T07:38:05;18.80;1.00
4699;DHT22;33708;49.466;11.176;2023-05-10T07:40:31;18.50;1.00
4699;DHT22;33708;49.466;11.176;2023-05-10T07:42:57;18.80;1.00
4699;DHT22;33708;49.466;11.176;2023-05-10T07:45:23;19.10;1.00
4699;DHT22;33708;49.466;11.176;2023-05-10T07:47:49;19.20;1.00
4699;DHT22;33708;49.466;11.176;2023-05-10T07:50:15;19.00;1.00
4699;DHT22;33708;49.466;11.176;2023-05-10T07:52:40;19.20;1.00
4699;DHT22;33708;49.466;11.176;2023-05-10T07:55:06;19.00;1.00
4699;DHT22;33708;49.466;11.176;2023-05-10T07:57:33;18.80;1.00
4699;DHT22;33708;49.466;11.176;2023-05-10T07:59:59;18.80;1.00
4699;DHT22;33708;49.466;11.176;2023-05-10T08:02:25;18.70;1.00
4699;DHT22;33708;49.466;11.176;2023-05-10T08:04:50;18.20;1.00
4699;DHT22;33708;49.466;11.176;2023-05-10T08:07:16;18.10;1.00
4699;DHT22;33708;49.466;11.176;2023-05-10T08:09:42;17.70;1.00
4699;DHT22;33708;49.466;11.176;2023-05-10T08:12:08;17.60;1.00
4699;DHT22;33708;49.466;11.176;2023-05-10T08:14:33;17.40;1.00
4699;DHT22;33708;49.466;11.176;2023-05-10T08:16:59;17.70;1.00
4699;DHT22;33708;49.466;11.176;2023-05-10T08:19:25;17.60;1.00
4699;DHT22;33708;49.466;11.176;2023-05-10T08:21:50;17.60;1.00
4699;DHT22;33708;49.466;11.176;2023-05-10T08:24:16;17.90;1.00
4699;DHT22;33708;49.466;11.176;2023-05-10T08:26:41;17.60;1.00
4699;DHT22;33708;49.466;11.176;2023-05-10T08:29:07;17.50;1.00
4699;DHT22;33708;49.466;11.176;2023-05-10T08:31:33;17.50;1.00
4699;DHT22;33708;49.466;11.176;2023-05-10T08:33:58;17.50;1.00
4699;DHT22;33708;49.466;11.176;2023-05-10T08:36:24;17.70;1.00
4699;DHT22;33708;49.466;11.176;2023-05-10T08:38:53;17.90;1.00
4699;DHT22;33708;49.466;11.176;2023-05-10T08:41:23;18.40;1.00
4699;DHT22;33708;49.466;11.176;2023-05-10T08:43:50;18.40;1.00
4699;DHT22;33708;49.466;11.176;2023-05-10T08:46:18;18.70;1.00
4699;DHT22;33708;49.466;11.176;2023-05-10T08:48:48;19.40;1.00
4699;DHT22;33708;49.466;11.176;2023-05-10T08:51:22;20.70;1.00
4699;DHT22;33708;49.466;11.176;2023-05-10T08:53:47;20.70;1.00
4699;DHT22;33708;49.466;11.176;2023-05-10T08:56:14;21.00;1.00
4699;DHT22;33708;49.466;11.176;2023-05-10T08:58:41;21.10;1.00
4699;DHT22;33708;49.466;11.176;2023-05-10T09:01:07;21.70;1.00
4699;DHT22;33708;49.466;11.176;2023-05-10T09:03:34;21.00;1.00
4699;DHT22;33708;49.466;11.176;2023-05-10T09:06:00;20.90;1.00
4699;DHT22;33708;49.466;11.176;2023-05-10T09:08:26;21.70;1.00
4699;DHT22;33708;49.466;11.176;2023-05-10T09:10:53;22.30;1.00
4699;DHT22;33708;49.466;11.176;2023-05-10T09:13:21;22.20;1.00
4699;DHT22;33708;49.466;11.176;2023-05-10T09:15:47;21.20;1.00
4699;DHT22;33708;49.466;11.176;2023-05-10T09:18:13;21.50;1.00
4699;DHT22;33708;49.466;11.176;2023-05-10T09:20:39;21.20;1.00
4699;DHT22;33708;49.466;11.176;2023-05-10T09:23:04;21.00;1.00
4699;DHT22;33708;49.466;11.176;2023-05-10T09:25:31;20.60;1.00
4699;DHT22;33708;49.466;11.176;2023-05-10T09:27:59;19.60;1.00
4699;DHT22;33708;49.466;11.176;2023-05-10T09:30:26;18.40;1.00
4699;DHT22;33708;49.466;11.176;2023-05-10T09:32:53;17.60;1.00
4699;DHT22;33708;49.466;11.176;2023-05-10T09:35:23;17.60;1.00
4699;DHT22;33708;49.466;11.176;2023-05-10T09:37:51;17.20;1.00
4699;DHT22;33708;49.466;11.176;2023-05-10T09:40:18;17.00;1.00
4699;DHT22;33708;49.466;11.176;2023-05-10T09:43:06;17.10;1.00
4699;DHT22;33708;49.466;11.176;2023-05-10T09:45:33;17.20;1.00
4699;DHT22;33708;49.466;11.176;2023-05-10T09:48:01;17.40;1.00
4699;DHT22;33708;49.466;11.176;2023-05-10T09:50:27;17.60;1.00
4699;DHT22;33708;49.466;11.176;2023-05-10T09:55:23;18.10;1.00
4699;DHT22;33708;49.466;11.176;2023-05-10T09:57:58;18.50;1.00
4699;DHT22;33708;49.466;11.176;2023-05-10T10:00:24;19.00;1.00
4699;DHT22;33708;49.466;11.176;2023-05-10T10:02:57;19.50;1.00
4699;DHT22;33708;49.466;11.176;2023-05-10T10:05:35;19.90;1.00
4699;DHT22;33708;49.466;11.176;2023-05-10T10:08:03;19.70;1.00
4699;DHT22;33708;49.466;11.176;2023-05-10T10:10:31;19.90;1.00
4699;DHT22;33708;49.466;11.176;2023-05-10T10:12:56;19.80;1.00
4699;DHT22;33708;49.466;11.176;2023-05-10T10:15:23;20.70;1.00
4699;DHT22;33708;49.466;11.176;2023-05-10T10:17:49;21.20;1.00
4699;DHT22;33708;49.466;11.176;2023-05-10T10:20:16;21.30;1.00
4699;DHT22;33708;49.466;11.176;2023-05-10T10:22:42;21.10;1.00
4699;DHT22;33708;49.466;11.176;2023-05-10T10:25:13;20.80;1.00
4699;DHT22;33708;49.466;11.176;2023-05-10T10:36:25;23.40;1.00
4699;DHT22;33708;49.466;11.176;2023-05-10T10:38:56;24.10;1.00
4699;DHT22;33708;49.466;11.176;2023-05-10T10:41:31;23.50;1.00
4699;DHT22;33708;49.466;11.176;2023-05-10T10:52:25;20.90;1.00
4699;DHT22;33708;49.466;11.176;2023-05-10T10:55:20;22.00;1.00
4699;DHT22;33708;49.466;11.176;2023-05-10T10:57:51;22.20;1.00
4699;DHT22;33708;49.466;11.176;2023-05-10T11:00:31;22.00;1.00
4699;DHT22;33708;49.466;11.176;2023-05-10T11:03:11;22.40;1.00
4699;DHT22;33708;49.466;11.176;2023-05-10T11:05:45;22.10;1.00
4699;DHT22;33708;49.466;11.176;2023-05-10T11:08:33;22.00;1.00
4699;DHT22;33708;49.466;11.176;2023-05-10T11:13:44;20.50;1.00
4699;DHT22;33708;49.466;11.176;2023-05-10T11:16:22;19.90;1.00
4699;DHT22;33708;49.466;11.176;2023-05-10T11:19:12;19.70;1.00
4699;DHT22;33708;49.466;11.176;2023-05-10T11:21:53;19.30;1.00
4699;DHT22;33708;49.466;11.176;2023-05-10T11:24:37;18.90;1.00
4699;DHT22;33708;49.466;11.176;2023-05-10T11:27:02;18.80;1.00
4699;DHT22;33708;49.466;11.176;2023-05-10T11:29:28;18.90;1.00
4699;DHT22;33708;49.466;11.176;2023-05-10T11:31:57;19.00;1.00
4699;DHT22;33708;49.466;11.176;2023-05-10T11:36:54;18.70;1.00
4699;DHT22;33708;49.466;11.176;2023-05-10T11:39:21;18.90;1.00
4699;DHT22;33708;49.466;11.176;2023-05-10T11:41:49;18.90;1.00
4699;DHT22;33708;49.466;11.176;2023-05-10T11:44:15;19.00;1.00
4699;DHT22;33708;49.466;11.176;2023-05-10T11:46:41;19.20;1.00
4699;DHT22;33708;49.466;11.176;2023-05-10T11:49:07;19.20;1.00
4699;DHT22;33708;49.466;11.176;2023-05-10T11:51:34;19.10;1.00
4699;DHT22;33708;49.466;11.176;2023-05-10T11:54:06;19.00;1.00
4699;DHT22;33708;49.466;11.176;2023-05-10T11:56:32;19.40;1.00
4699;DHT22;33708;49.466;11.176;2023-05-10T11:58:58;19.60;1.00
4699;DHT22;33708;49.466;11.176;2023-05-10T12:01:26;20.10;1.00
4699;DHT22;33708;49.466;11.176;2023-05-10T12:03:53;20.60;1.00
4699;DHT22;33708;49.466;11.176;2023-05-10T12:06:20;21.10;1.00
4699;DHT22;33708;49.466;11.176;2023-05-10T12:08:47;21.10;1.00
4699;DHT22;33708;49.466;11.176;2023-05-10T12:11:14;21.20;1.00
4699;DHT22;33708;49.466;11.176;2023-05-10T12:13:44;21.70;1.00
4699;DHT22;33708;49.466;11.176;2023-05-10T12:18:40;21.90;1.00
4699;DHT22;33708;49.466;11.176;2023-05-10T12:21:06;22.30;1.00
4699;DHT22;33708;49.466;11.176;2023-05-10T12:23:32;22.40;1.00
4699;DHT22;33708;49.466;11.176;2023-05-10T12:26:04;21.70;1.00
4699;DHT22;33708;49.466;11.176;2023-05-10T12:28:31;22.50;1.00
4699;DHT22;33708;49.466;11.176;2023-05-10T12:30:58;22.40;1.00
4699;DHT22;33708;49.466;11.176;2023-05-10T12:33:24;22.80;1.00
4699;DHT22;33708;49.466;11.176;2023-05-10T12:35:51;22.30;1.00
4699;DHT22;33708;49.466;11.176;2023-05-10T12:40:54;21.90;1.00
4699;DHT22;33708;49.466;11.176;2023-05-10T12:43:19;22.30;1.00
4699;DHT22;33708;49.466;11.176;2023-05-10T12:45:45;22.20;1.00
4699;DHT22;33708;49.466;11.176;2023-05-10T12:48:13;22.50;1.00
4699;DHT22;33708;49.466;11.176;2023-05-10T12:50:39;22.20;1.00
4699;DHT22;33708;49.466;11.176;2023-05-10T12:53:04;22.20;1.00
4699;DHT22;33708;49.466;11.176;2023-05-10T12:55:30;22.30;1.00
4699;DHT22;33708;49.466;11.176;2023-05-10T12:57:56;22.00;1.00
4699;DHT22;33708;49.466;11.176;2023-05-10T13:00:21;22.70;1.00
4699;DHT22;33708;49.466;11.176;2023-05-10T13:02:47;22.70;1.00
4699;DHT22;33708;49.466;11.176;2023-05-10T13:05:13;22.30;1.00
4699;DHT22;33708;49.466;11.176;2023-05-10T13:07:39;22.50;1.00
4699;DHT22;33708;49.466;11.176;2023-05-10T13:10:05;22.80;1.00
4699;DHT22;33708;49.466;11.176;2023-05-10T13:12:31;22.50;1.00
4699;DHT22;33708;49.466;11.176;2023-05-10T13:14:57;22.60;1.00
4699;DHT22;33708;49.466;11.176;2023-05-10T13:17:23;22.50;1.00
4699;DHT22;33708;49.466;11.176;2023-05-10T13:19:48;22.20;1.00
4699;DHT22;33708;49.466;11.176;2023-05-10T13:22:14;22.40;1.00
4699;DHT22;33708;49.466;11.176;2023-05-10T13:24:40;22.40;1.00
4699;DHT22;33708;49.466;11.176;2023-05-10T13:27:05;22.30;1.00
4699;DHT22;33708;49.466;11.176;2023-05-10T13:29:31;22.30;1.00
4699;DHT22;33708;49.466;11.176;2023-05-10T13:31:57;21.90;1.00
4699;DHT22;33708;49.466;11.176;2023-05-10T13:34:22;22.00;1.00
4699;DHT22;33708;49.466;11.176;2023-05-10T13:36:49;21.80;1.00
4699;DHT22;33708;49.466;11.176;2023-05-10T13:39:15;21.30;1.00
4699;DHT22;33708;49.466;11.176;2023-05-10T13:41:40;21.00;1.00
4699;DHT22;33708;49.466;11.176;2023-05-10T13:44:06;20.70;1.00
4699;DHT22;33708;49.466;11.176;2023-05-10T13:46:32;20.60;1.00
4699;DHT22;33708;49.466;11.176;2023-05-10T13:48:57;20.40;1.00
4699;DHT22;33708;49.466;11.176;2023-05-10T13:51:23;20.50;1.00
4699;DHT22;33708;49.466;11.176;2023-05-10T13:53:49;20.90;1.00
4699;DHT22;33708;49.466;11.176;2023-05-10T13:56:14;20.80;1.00
4699;DHT22;33708;49.466;11.176;2023-05-10T13:58:40;20.90;1.00
4699;DHT22;33708;49.466;11.176;2023-05-10T14:01:06;20.70;1.00
4699;DHT22;33708;49.466;11.176;2023-05-10T14:03:32;21.10;1.00
4699;DHT22;33708;49.466;11.176;2023-05-10T14:05:58;21.10;1.00
4699;DHT22;33708;49.466;11.176;2023-05-10T14:08:23;21.10;1.00
4699;DHT22;33708;49.466;11.176;2023-05-10T14:10:49;21.30;1.00
4699;DHT22;33708;49.466;11.176;2023-05-10T14:13:16;21.50;1.00
4699;DHT22;33708;49.466;11.176;2023-05-10T14:15:41;21.40;1.00
4699;DHT22;33708;49.466;11.176;2023-05-10T14:18:07;20.90;1.00
4699;DHT22;33708;49.466;11.176;2023-05-10T14:20:32;20.70;1.00
4699;DHT22;33708;49.466;11.176;2023-05-10T14:22:59;20.50;1.00
4699;DHT22;33708;49.466;11.176;2023-05-10T14:25:25;20.40;1.00
4699;DHT22;33708;49.466;11.176;2023-05-10T14:27:51;20.20;1.00
4699;DHT22;33708;49.466;11.176;2023-05-10T14:30:19;19.80;1.00
4699;DHT22;33708;49.466;11.176;2023-05-10T14:32:45;19.80;1.00
4699;DHT22;33708;49.466;11.176;2023-05-10T14:35:10;19.80;1.00
4699;DHT22;33708;49.466;11.176;2023-05-10T14:37:36;19.50;1.00
4699;DHT22;33708;49.466;11.176;2023-05-10T14:40:02;19.40;1.00
4699;DHT22;33708;49.466;11.176;2023-05-10T14:42:29;19.50;1.00
4699;DHT22;33708;49.466;11.176;2023-05-10T14:44:55;19.10;1.00
4699;DHT22;33708;49.466;11.176;2023-05-10T14:47:21;19.30;1.00
4699;DHT22;33708;49.466;11.176;2023-05-10T14:49:47;19.20;1.00
4699;DHT22;33708;49.466;11.176;2023-05-10T14:52:12;19.40;1.00
4699;DHT22;33708;49.466;11.176;2023-05-10T14:54:39;19.80;1.00
4699;DHT22;33708;49.466;11.176;2023-05-10T14:57:06;19.80;1.00
4699;DHT22;33708;49.466;11.176;2023-05-10T14:59:31;20.10;1.00
4699;DHT22;33708;49.466;11.176;2023-05-10T15:01:57;20.10;1.00
4699;DHT22;33708;49.466;11.176;2023-05-10T15:04:23;20.30;1.00
4699;DHT22;33708;49.466;11.176;2023-05-10T15:06:49;20.10;1.00
4699;DHT22;33708;49.466;11.176;2023-05-10T15:09:15;20.00;1.00
4699;DHT22;33708;49.466;11.176;2023-05-10T15:11:41;20.10;1.00
4699;DHT22;33708;49.466;11.176;2023-05-10T15:14:07;20.30;1.00
4699;DHT22;33708;49.466;11.176;2023-05-10T15:16:33;20.20;1.00
4699;DHT22;33708;49.466;11.176;2023-05-10T15:18:58;20.20;1.00
4699;DHT22;33708;49.466;11.176;2023-05-10T15:21:24;20.10;1.00
4699;DHT22;33708;49.466;11.176;2023-05-10T15:23:49;19.70;1.00
4699;DHT22;33708;49.466;11.176;2023-05-10T15:26:15;19.70;1.00
4699;DHT22;33708;49.466;11.176;2023-05-10T15:28:40;19.70;1.00
4699;DHT22;33708;49.466;11.176;2023-05-10T15:31:06;18.90;1.00
4699;DHT22;33708;49.466;11.176;2023-05-10T15:33:32;18.50;1.00
4699;DHT22;33708;49.466;11.176;2023-05-10T15:35:57;18.00;1.00
4699;DHT22;33708;49.466;11.176;2023-05-10T15:38:23;17.90;1.00
4699;DHT22;33708;49.466;11.176;2023-05-10T15:40:49;17.90;1.00
4699;DHT22;33708;49.466;11.176;2023-05-10T15:43:14;18.00;1.00
4699;DHT22;33708;49.466;11.176;2023-05-10T15:45:40;18.00;1.00
4699;DHT22;33708;49.466;11.176;2023-05-10T15:48:06;18.20;1.00
4699;DHT22;33708;49.466;11.176;2023-05-10T15:50:32;18.20;1.00
4699;DHT22;33708;49.466;11.176;2023-05-10T15:52:57;18.20;1.00
4699;DHT22;33708;49.466;11.176;2023-05-10T15:55:23;18.30;1.00
4699;DHT22;33708;49.466;11.176;2023-05-10T15:57:48;18.30;1.00
4699;DHT22;33708;49.466;11.176;2023-05-10T16:00:15;18.40;1.00
4699;DHT22;33708;49.466;11.176;2023-05-10T16:02:41;18.40;1.00
4699;DHT22;33708;49.466;11.176;2023-05-10T16:05:07;18.40;1.00
4699;DHT22;33708;49.466;11.176;2023-05-10T16:07:34;18.20;1.00
4699;DHT22;33708;49.466;11.176;2023-05-10T16:10:00;18.30;1.00
4699;DHT22;33708;49.466;11.176;2023-05-10T16:12:29;18.40;1.00
4699;DHT22;33708;49.466;11.176;2023-05-10T16:14:55;18.50;1.00
4699;DHT22;33708;49.466;11.176;2023-05-10T16:17:21;17.90;1.00
4699;DHT22;33708;49.466;11.176;2023-05-10T16:19:47;17.90;1.00
4699;DHT22;33708;49.466;11.176;2023-05-10T16:22:13;17.80;1.00
4699;DHT22;33708;49.466;11.176;2023-05-10T16:24:39;17.50;1.00
4699;DHT22;33708;49.466;11.176;2023-05-10T16:27:05;17.30;1.00
4699;DHT22;33708;49.466;11.176;2023-05-10T16:29:30;17.50;1.00
4699;DHT22;33708;49.466;11.176;2023-05-10T16:31:56;17.20;1.00